sensor_id;sensor_type;location;lat;lon;timestamp;temperature;humidity
12604;DHT22;6367;52.508;13.284;2023-02-22T00:01:15;12.30;99.40
12604;DHT22;6367;52.508;13.284;2023-02-22T00:03:52;12.30;99.40
12604;DHT22;6367;52.508;13.284;2023-02-22T00:06:20;12.40;99.30
12604;DHT22;6367;52.508;13.284;2023-02-22T00:08:47;12.30;99.30
12604;DHT22;6367;52.508;13.284;2023-02-22T00:11:20;12.40;99.40
12604;DHT22;6367;52.508;13.284;2023-02-22T00:13:48;12.70;99.60
12604;DHT22;6367;52.508;13.284;2023-02-22T00:16:18;12.30;99.40
12604;DHT22;6367;52.508;13.284;2023-02-22T00:18:44;12.20;99.60
12604;DHT22;6367;52.508;13.284;2023-02-22T00:21:12;12.20;99.70
12604;DHT22;6367;52.508;13.284;2023-02-22T00:23:43;12.20;99.60
12604;DHT22;6367;52.508;13.284;2023-02-22T00:26:18;12.20;99.70
12604;DHT22;6367;52.508;13.284;2023-02-22T00:28:50;12.20;99.90
12604;DHT22;6367;52.508;13.284;2023-02-22T00:31:17;12.30;99.60
12604;DHT22;6367;52.508;13.284;2023-02-22T00:33:42;12.20;99.90
12604;DHT22;6367;52.508;13.284;2023-02-22T00:36:10;12.20;99.90
12604;DHT22;6367;52.508;13.284;2023-02-22T00:38:36;12.10;99.90
12604;DHT22;6367;52.508;13.284;2023-02-22T00:41:02;12.10;99.90
12604;DHT22;6367;52.508;13.284;2023-02-22T00:43:28;12.10;99.90
12604;DHT22;6367;52.508;13.284;2023-02-22T00:45:56;12.00;99.90
12604;DHT22;6367;52.508;13.284;2023-02-22T00:48:22;12.00;99.90
12604;DHT22;6367;52.508;13.284;2023-02-22T00:50:48;11.90;99.90
12604;DHT22;6367;52.508;13.284;2023-02-22T00:53:15;11.90;99.90
12604;DHT22;6367;52.508;13.284;2023-02-22T00:55:41;11.90;99.90
12604;DHT22;6367;52.508;13.284;2023-02-22T00:58:07;12.00;99.90
12604;DHT22;6367;52.508;13.284;2023-02-22T01:00:39;11.90;99.90
12604;DHT22;6367;52.508;13.284;2023-02-22T01:03:07;11.90;99.90
12604;DHT22;6367;52.508;13.284;2023-02-22T01:05:33;12.00;99.90
12604;DHT22;6367;52.508;13.284;2023-02-22T01:08:01;11.90;99.90
12604;DHT22;6367;52.508;13.284;2023-02-22T01:10:29;11.80;99.90
12604;DHT22;6367;52.508;13.284;2023-02-22T01:12:56;11.80;99.90
12604;DHT22;6367;52.508;13.284;2023-02-22T01:15:24;11.90;99.90
12604;DHT22;6367;52.508;13.284;2023-02-22T01:17:52;11.80;99.90
12604;DHT22;6367;52.508;13.284;2023-02-22T01:20:22;11.90;99.90
12604;DHT22;6367;52.508;13.284;2023-02-22T01:22:51;11.80;99.90
12604;DHT22;6367;52.508;13.284;2023-02-22T01:25:20;11.80;99.90
12604;DHT22;6367;52.508;13.284;2023-02-22T01:27:47;11.80;99.90
12604;DHT22;6367;52.508;13.284;2023-02-22T01:30:18;11.80;99.90
12604;DHT22;6367;52.508;13.284;2023-02-22T01:32:44;11.80;99.90
12604;DHT22;6367;52.508;13.284;2023-02-22T01:35:13;11.80;99.90
12604;DHT22;6367;52.508;13.284;2023-02-22T01:37:40;11.80;99.90
12604;DHT22;6367;52.508;13.284;2023-02-22T01:40:08;11.70;99.90
12604;DHT22;6367;52.508;13.284;2023-02-22T01:42:35;11.70;99.90
12604;DHT22;6367;52.508;13.284;2023-02-22T01:50:25;11.70;99.90
12604;DHT22;6367;52.508;13.284;2023-02-22T01:52:51;11.60;99.90
12604;DHT22;6367;52.508;13.284;2023-02-22T01:55:17;11.60;99.90
12604;DHT22;6367;52.508;13.284;2023-02-22T01:57:43;11.70;99.90
12604;DHT22;6367;52.508;13.284;2023-02-22T02:00:13;11.60;99.90
12604;DHT22;6367;52.508;13.284;2023-02-22T02:02:54;11.50;99.90
12604;DHT22;6367;52.508;13.284;2023-02-22T02:05:24;11.50;99.90
12604;DHT22;6367;52.508;13.284;2023-02-22T02:07:51;11.40;99.90
12604;DHT22;6367;52.508;13.284;2023-02-22T02:10:18;11.40;99.90
12604;DHT22;6367;52.508;13.284;2023-02-22T02:12:47;11.40;99.90
12604;DHT22;6367;52.508;13.284;2023-02-22T02:17:42;11.30;99.90
12604;DHT22;6367;52.508;13.284;2023-02-22T02:20:23;11.30;99.90
12604;DHT22;6367;52.508;13.284;2023-02-22T02:23:19;11.40;99.90
12604;DHT22;6367;52.508;13.284;2023-02-22T02:40:33;11.40;99.90
12604;DHT22;6367;52.508;13.284;2023-02-22T02:43:27;11.30;99.90
12604;DHT22;6367;52.508;13.284;2023-02-22T02:46:11;11.30;99.90
12604;DHT22;6367;52.508;13.284;2023-02-22T02:48:46;11.20;99.90
12604;DHT22;6367;52.508;13.284;2023-02-22T02:51:14;11.30;99.90
12604;DHT22;6367;52.508;13.284;2023-02-22T02:53:44;11.30;99.90
12604;DHT22;6367;52.508;13.284;2023-02-22T02:56:10;11.20;99.90
12604;DHT22;6367;52.508;13.284;2023-02-22T02:58:50;11.20;99.90
12604;DHT22;6367;52.508;13.284;2023-02-22T03:01:34;11.20;99.90
12604;DHT22;6367;52.508;13.284;2023-02-22T03:12:44;11.10;99.90
12604;DHT22;6367;52.508;13.284;2023-02-22T03:18:28;10.90;99.90
12604;DHT22;6367;52.508;13.284;2023-02-22T03:24:06;10.90;99.90
12604;DHT22;6367;52.508;13.284;2023-02-22T03:26:50;10.90;99.90
12604;DHT22;6367;52.508;13.284;2023-02-22T03:29:19;10.80;99.90
12604;DHT22;6367;52.508;13.284;2023-02-22T03:31:50;10.90;99.90
12604;DHT22;6367;52.508;13.284;2023-02-22T03:34:23;10.80;99.90
12604;DHT22;6367;52.508;13.284;2023-02-22T03:37:01;10.90;99.90
12604;DHT22;6367;52.508;13.284;2023-02-22T03:39:29;10.90;99.90
12604;DHT22;6367;52.508;13.284;2023-02-22T03:42:03;10.80;99.90
12604;DHT22;6367;52.508;13.284;2023-02-22T03:44:32;11.20;99.90
12604;DHT22;6367;52.508;13.284;2023-02-22T03:47:06;10.80;99.90
12604;DHT22;6367;52.508;13.284;2023-02-22T03:49:51;10.80;99.90
12604;DHT22;6367;52.508;13.284;2023-02-22T03:52:18;10.80;99.90
12604;DHT22;6367;52.508;13.284;2023-02-22T03:54:44;11.00;99.90
12604;DHT22;6367;52.508;13.284;2023-02-22T03:57:18;10.90;99.90
12604;DHT22;6367;52.508;13.284;2023-02-22T03:59:45;11.20;99.90
12604;DHT22;6367;52.508;13.284;2023-02-22T04:02:11;10.90;99.90
12604;DHT22;6367;52.508;13.284;2023-02-22T04:04:37;10.80;99.90
12604;DHT22;6367;52.508;13.284;2023-02-22T04:07:02;10.80;99.90
12604;DHT22;6367;52.508;13.284;2023-02-22T04:09:28;10.80;99.90
12604;DHT22;6367;52.508;13.284;2023-02-22T04:11:54;10.70;99.90
12604;DHT22;6367;52.508;13.284;2023-02-22T04:14:19;10.60;99.90
12604;DHT22;6367;52.508;13.284;2023-02-22T04:16:45;10.60;99.90
12604;DHT22;6367;52.508;13.284;2023-02-22T04:19:11;10.60;99.90
12604;DHT22;6367;52.508;13.284;2023-02-22T04:21:37;10.60;99.90
12604;DHT22;6367;52.508;13.284;2023-02-22T04:24:03;11.10;99.90
12604;DHT22;6367;52.508;13.284;2023-02-22T04:26:28;10.70;99.90
12604;DHT22;6367;52.508;13.284;2023-02-22T04:28:54;10.80;99.90
12604;DHT22;6367;52.508;13.284;2023-02-22T04:31:20;10.80;99.90
12604;DHT22;6367;52.508;13.284;2023-02-22T04:33:46;10.80;99.90
12604;DHT22;6367;52.508;13.284;2023-02-22T04:36:11;10.80;99.90
12604;DHT22;6367;52.508;13.284;2023-02-22T04:38:40;10.80;99.90
12604;DHT22;6367;52.508;13.284;2023-02-22T04:41:06;10.70;99.90
12604;DHT22;6367;52.508;13.284;2023-02-22T04:43:32;10.70;99.90
12604;DHT22;6367;52.508;13.284;2023-02-22T04:45:58;10.70;99.90
12604;DHT22;6367;52.508;13.284;2023-02-22T04:48:23;10.80;99.90
12604;DHT22;6367;52.508;13.284;2023-02-22T04:50:49;10.70;99.90
12604;DHT22;6367;52.508;13.284;2023-02-22T04:53:16;10.70;99.90
12604;DHT22;6367;52.508;13.284;2023-02-22T04:55:42;10.80;99.90
12604;DHT22;6367;52.508;13.284;2023-02-22T04:58:10;10.80;99.90
12604;DHT22;6367;52.508;13.284;2023-02-22T05:00:36;10.70;99.90
12604;DHT22;6367;52.508;13.284;2023-02-22T05:03:02;11.30;99.90
12604;DHT22;6367;52.508;13.284;2023-02-22T05:05:28;10.60;99.90
12604;DHT22;6367;52.508;13.284;2023-02-22T05:07:54;10.70;99.90
12604;DHT22;6367;52.508;13.284;2023-02-22T05:10:20;10.70;99.90
12604;DHT22;6367;52.508;13.284;2023-02-22T05:12:46;10.70;99.90
12604;DHT22;6367;52.508;13.284;2023-02-22T05:15:18;10.80;99.90
12604;DHT22;6367;52.508;13.284;2023-02-22T05:17:47;10.80;99.90
12604;DHT22;6367;52.508;13.284;2023-02-22T05:20:26;10.70;99.90
12604;DHT22;6367;52.508;13.284;2023-02-22T05:22:57;10.70;99.90
12604;DHT22;6367;52.508;13.284;2023-02-22T05:25:23;10.70;99.90
12604;DHT22;6367;52.508;13.284;2023-02-22T05:28:03;10.70;99.90
12604;DHT22;6367;52.508;13.284;2023-02-22T05:30:32;10.90;99.90
12604;DHT22;6367;52.508;13.284;2023-02-22T05:32:58;10.90;99.90
12604;DHT22;6367;52.508;13.284;2023-02-22T05:35:28;10.80;99.90
12604;DHT22;6367;52.508;13.284;2023-02-22T05:38:04;10.90;99.90
12604;DHT22;6367;52.508;13.284;2023-02-22T05:40:31;10.80;99.90
12604;DHT22;6367;52.508;13.284;2023-02-22T05:43:06;10.90;99.90
12604;DHT22;6367;52.508;13.284;2023-02-22T05:45:35;10.90;99.90
12604;DHT22;6367;52.508;13.284;2023-02-22T05:48:01;10.90;99.90
12604;DHT22;6367;52.508;13.284;2023-02-22T05:50:29;10.80;99.90
12604;DHT22;6367;52.508;13.284;2023-02-22T05:52:57;10.90;99.90
12604;DHT22;6367;52.508;13.284;2023-02-22T05:55:23;11.30;99.90
12604;DHT22;6367;52.508;13.284;2023-02-22T05:57:50;11.00;99.90
12604;DHT22;6367;52.508;13.284;2023-02-22T06:00:19;11.00;99.90
12604;DHT22;6367;52.508;13.284;2023-02-22T06:02:53;11.00;99.90
12604;DHT22;6367;52.508;13.284;2023-02-22T06:05:22;11.00;99.90
12604;DHT22;6367;52.508;13.284;2023-02-22T06:07:47;10.90;99.90
12604;DHT22;6367;52.508;13.284;2023-02-22T06:10:13;11.00;99.90
12604;DHT22;6367;52.508;13.284;2023-02-22T06:12:39;11.00;99.90
12604;DHT22;6367;52.508;13.284;2023-02-22T06:15:05;10.90;99.90
12604;DHT22;6367;52.508;13.284;2023-02-22T06:17:30;11.00;99.90
12604;DHT22;6367;52.508;13.284;2023-02-22T06:19:56;11.00;99.90
12604;DHT22;6367;52.508;13.284;2023-02-22T06:22:22;11.10;99.90
12604;DHT22;6367;52.508;13.284;2023-02-22T06:24:48;11.00;99.90
12604;DHT22;6367;52.508;13.284;2023-02-22T06:27:13;11.00;99.90
12604;DHT22;6367;52.508;13.284;2023-02-22T06:29:44;11.10;99.90
12604;DHT22;6367;52.508;13.284;2023-02-22T06:32:11;11.10;99.90
12604;DHT22;6367;52.508;13.284;2023-02-22T06:34:37;11.10;99.90
12604;DHT22;6367;52.508;13.284;2023-02-22T06:37:04;11.10;99.90
12604;DHT22;6367;52.508;13.284;2023-02-22T06:39:29;11.10;99.90
12604;DHT22;6367;52.508;13.284;2023-02-22T06:41:55;11.10;99.90
12604;DHT22;6367;52.508;13.284;2023-02-22T06:44:22;11.20;99.90
12604;DHT22;6367;52.508;13.284;2023-02-22T06:46:49;11.10;99.90
12604;DHT22;6367;52.508;13.284;2023-02-22T06:49:19;11.10;99.90
12604;DHT22;6367;52.508;13.284;2023-02-22T06:51:45;11.10;99.90
12604;DHT22;6367;52.508;13.284;2023-02-22T06:54:11;11.10;99.90
12604;DHT22;6367;52.508;13.284;2023-02-22T06:56:37;11.10;99.90
12604;DHT22;6367;52.508;13.284;2023-02-22T06:59:02;11.10;99.90
12604;DHT22;6367;52.508;13.284;2023-02-22T07:01:28;11.00;99.90
12604;DHT22;6367;52.508;13.284;2023-02-22T07:03:57;11.10;99.90
12604;DHT22;6367;52.508;13.284;2023-02-22T07:06:23;11.10;99.90
12604;DHT22;6367;52.508;13.284;2023-02-22T07:08:49;11.10;99.90
12604;DHT22;6367;52.508;13.284;2023-02-22T07:11:15;11.20;99.90
12604;DHT22;6367;52.508;13.284;2023-02-22T07:13:41;11.30;99.90
12604;DHT22;6367;52.508;13.284;2023-02-22T07:16:07;11.40;99.90
12604;DHT22;6367;52.508;13.284;2023-02-22T07:18:33;11.50;99.90
12604;DHT22;6367;52.508;13.284;2023-02-22T07:20:58;11.40;99.90
12604;DHT22;6367;52.508;13.284;2023-02-22T07:23:24;11.40;99.90
12604;DHT22;6367;52.508;13.284;2023-02-22T07:25:52;11.40;99.90
12604;DHT22;6367;52.508;13.284;2023-02-22T07:28:18;11.50;99.90
12604;DHT22;6367;52.508;13.284;2023-02-22T07:30:44;11.50;99.90
12604;DHT22;6367;52.508;13.284;2023-02-22T07:33:10;11.40;99.90
12604;DHT22;6367;52.508;13.284;2023-02-22T07:35:37;11.40;99.90
12604;DHT22;6367;52.508;13.284;2023-02-22T07:38:06;11.30;99.90
12604;DHT22;6367;52.508;13.284;2023-02-22T07:40:35;11.30;99.90
12604;DHT22;6367;52.508;13.284;2023-02-22T07:43:04;11.30;99.90
12604;DHT22;6367;52.508;13.284;2023-02-22T07:45:32;11.60;99.90
12604;DHT22;6367;52.508;13.284;2023-02-22T07:47:59;11.30;99.90
12604;DHT22;6367;52.508;13.284;2023-02-22T07:50:26;11.30;99.90
12604;DHT22;6367;52.508;13.284;2023-02-22T07:52:53;11.30;99.90
12604;DHT22;6367;52.508;13.284;2023-02-22T07:55:22;11.30;99.90
12604;DHT22;6367;52.508;13.284;2023-02-22T07:57:52;11.30;99.90
12604;DHT22;6367;52.508;13.284;2023-02-22T08:00:25;11.30;99.90
12604;DHT22;6367;52.508;13.284;2023-02-22T08:02:52;11.30;99.90
12604;DHT22;6367;52.508;13.284;2023-02-22T08:05:19;11.40;99.90
12604;DHT22;6367;52.508;13.284;2023-02-22T08:07:44;11.40;99.90
12604;DHT22;6367;52.508;13.284;2023-02-22T08:10:13;11.50;99.90
12604;DHT22;6367;52.508;13.284;2023-02-22T08:12:39;11.40;99.90
12604;DHT22;6367;52.508;13.284;2023-02-22T08:15:06;11.50;99.90
12604;DHT22;6367;52.508;13.284;2023-02-22T08:17:32;11.50;99.90
12604;DHT22;6367;52.508;13.284;2023-02-22T08:19:58;11.50;99.90
12604;DHT22;6367;52.508;13.284;2023-02-22T08:22:24;11.50;99.90
12604;DHT22;6367;52.508;13.284;2023-02-22T08:24:51;11.50;99.90
12604;DHT22;6367;52.508;13.284;2023-02-22T08:27:28;11.20;99.90
12604;DHT22;6367;52.508;13.284;2023-02-22T08:29:55;11.50;99.90
12604;DHT22;6367;52.508;13.284;2023-02-22T08:32:21;11.60;99.90
12604;DHT22;6367;52.508;13.284;2023-02-22T08:34:47;11.60;99.90
12604;DHT22;6367;52.508;13.284;2023-02-22T08:37:14;11.70;99.90
12604;DHT22;6367;52.508;13.284;2023-02-22T08:39:43;11.60;99.90
12604;DHT22;6367;52.508;13.284;2023-02-22T08:42:10;11.60;99.90
12604;DHT22;6367;52.508;13.284;2023-02-22T08:44:37;11.70;99.90
12604;DHT22;6367;52.508;13.284;2023-02-22T08:47:04;11.60;99.90
12604;DHT22;6367;52.508;13.284;2023-02-22T08:49:32;11.60;99.90
12604;DHT22;6367;52.508;13.284;2023-02-22T08:52:07;11.70;99.90
12604;DHT22;6367;52.508;13.284;2023-02-22T08:54:33;11.70;99.90
12604;DHT22;6367;52.508;13.284;2023-02-22T08:56:58;11.80;99.90
12604;DHT22;6367;52.508;13.284;2023-02-22T08:59:33;11.70;99.90
12604;DHT22;6367;52.508;13.284;2023-02-22T09:01:59;11.70;99.90
12604;DHT22;6367;52.508;13.284;2023-02-22T09:04:24;11.70;99.90
12604;DHT22;6367;52.508;13.284;2023-02-22T09:06:50;11.20;99.90
12604;DHT22;6367;52.508;13.284;2023-02-22T09:09:19;11.70;99.90
12604;DHT22;6367;52.508;13.284;2023-02-22T09:11:46;11.70;99.90
12604;DHT22;6367;52.508;13.284;2023-02-22T09:14:12;11.70;99.90
12604;DHT22;6367;52.508;13.284;2023-02-22T09:16:39;11.70;99.90
12604;DHT22;6367;52.508;13.284;2023-02-22T09:19:05;11.70;99.90
12604;DHT22;6367;52.508;13.284;2023-02-22T09:21:30;11.70;99.90
12604;DHT22;6367;52.508;13.284;2023-02-22T09:23:56;11.70;99.90
12604;DHT22;6367;52.508;13.284;2023-02-22T09:26:22;11.70;99.90
12604;DHT22;6367;52.508;13.284;2023-02-22T09:28:49;11.70;99.90
12604;DHT22;6367;52.508;13.284;2023-02-22T09:31:15;11.90;99.90
12604;DHT22;6367;52.508;13.284;2023-02-22T09:33:41;12.40;99.90
12604;DHT22;6367;52.508;13.284;2023-02-22T09:36:07;11.90;99.80
12604;DHT22;6367;52.508;13.284;2023-02-22T09:38:32;11.90;99.60
12604;DHT22;6367;52.508;13.284;2023-02-22T09:46:22;12.00;99.50
12604;DHT22;6367;52.508;13.284;2023-02-22T09:49:00;11.90;99.80
12604;DHT22;6367;52.508;13.284;2023-02-22T09:51:43;12.00;99.60
12604;DHT22;6367;52.508;13.284;2023-02-22T09:54:21;12.10;99.60
12604;DHT22;6367;52.508;13.284;2023-02-22T09:56:51;12.20;99.20
12604;DHT22;6367;52.508;13.284;2023-02-22T09:59:23;12.20;98.90
12604;DHT22;6367;52.508;13.284;2023-02-22T10:02:04;12.20;99.10
12604;DHT22;6367;52.508;13.284;2023-02-22T10:04:51;12.30;98.90
12604;DHT22;6367;52.508;13.284;2023-02-22T10:07:45;12.20;98.60
12604;DHT22;6367;52.508;13.284;2023-02-22T10:10:18;12.20;98.70
12604;DHT22;6367;52.508;13.284;2023-02-22T10:13:04;12.20;98.50
12604;DHT22;6367;52.508;13.284;2023-02-22T10:18:56;12.40;98.50
12604;DHT22;6367;52.508;13.284;2023-02-22T10:24:32;12.40;97.90
12604;DHT22;6367;52.508;13.284;2023-02-22T10:27:12;12.40;98.20
12604;DHT22;6367;52.508;13.284;2023-02-22T10:29:55;12.50;98.20
12604;DHT22;6367;52.508;13.284;2023-02-22T10:32:30;12.50;98.10
12604;DHT22;6367;52.508;13.284;2023-02-22T10:34:57;12.60;97.90
12604;DHT22;6367;52.508;13.284;2023-02-22T10:37:31;12.60;97.40
12604;DHT22;6367;52.508;13.284;2023-02-22T10:40:19;12.50;97.20
12604;DHT22;6367;52.508;13.284;2023-02-22T10:42:48;12.60;97.30
12604;DHT22;6367;52.508;13.284;2023-02-22T10:45:26;12.50;97.50
12604;DHT22;6367;52.508;13.284;2023-02-22T10:47:55;12.40;97.80
12604;DHT22;6367;52.508;13.284;2023-02-22T10:50:24;11.70;97.70
12604;DHT22;6367;52.508;13.284;2023-02-22T10:52:51;12.40;98.10
12604;DHT22;6367;52.508;13.284;2023-02-22T10:55:20;12.40;98.30
12604;DHT22;6367;52.508;13.284;2023-02-22T10:57:49;12.30;98.50
12604;DHT22;6367;52.508;13.284;2023-02-22T11:01:00;12.30;98.90
12604;DHT22;6367;52.508;13.284;2023-02-22T11:03:18;12.40;98.80
12604;DHT22;6367;52.508;13.284;2023-02-22T11:05:46;12.30;98.60
12604;DHT22;6367;52.508;13.284;2023-02-22T11:10:52;12.20;98.50
12604;DHT22;6367;52.508;13.284;2023-02-22T11:13:25;12.10;98.80
12604;DHT22;6367;52.508;13.284;2023-02-22T11:15:53;12.20;98.90
12604;DHT22;6367;52.508;13.284;2023-02-22T11:18:25;12.20;98.80
12604;DHT22;6367;52.508;13.284;2023-02-22T11:21:09;12.00;98.90
12604;DHT22;6367;52.508;13.284;2023-02-22T11:23:37;12.10;98.90
12604;DHT22;6367;52.508;13.284;2023-02-22T11:26:10;12.00;99.00
12604;DHT22;6367;52.508;13.284;2023-02-22T11:28:48;12.10;99.10
12604;DHT22;6367;52.508;13.284;2023-02-22T11:31:39;12.10;99.20
12604;DHT22;6367;52.508;13.284;2023-02-22T11:34:05;12.10;98.70
12604;DHT22;6367;52.508;13.284;2023-02-22T11:39:03;12.10;98.90
12604;DHT22;6367;52.508;13.284;2023-02-22T11:41:31;12.10;98.90
12604;DHT22;6367;52.508;13.284;2023-02-22T11:46:39;12.20;98.50
12604;DHT22;6367;52.508;13.284;2023-02-22T11:49:08;12.20;98.20
12604;DHT22;6367;52.508;13.284;2023-02-22T12:02:30;12.40;98.30
12604;DHT22;6367;52.508;13.284;2023-02-22T12:22:01;12.40;97.50
12604;DHT22;6367;52.508;13.284;2023-02-22T12:24:44;12.50;97.80
12604;DHT22;6367;52.508;13.284;2023-02-22T12:27:21;12.50;97.60
12604;DHT22;6367;52.508;13.284;2023-02-22T12:30:10;12.40;97.60
12604;DHT22;6367;52.508;13.284;2023-02-22T12:32:47;13.00;97.70
12604;DHT22;6367;52.508;13.284;2023-02-22T12:35:29;12.60;97.30
12604;DHT22;6367;52.508;13.284;2023-02-22T12:41:06;12.70;97.70
12604;DHT22;6367;52.508;13.284;2023-02-22T12:43:54;12.80;97.30
12604;DHT22;6367;52.508;13.284;2023-02-22T12:46:33;12.70;97.20
12604;DHT22;6367;52.508;13.284;2023-02-22T12:55:05;12.50;97.60
12604;DHT22;6367;52.508;13.284;2023-02-22T12:57:55;12.60;97.80
12604;DHT22;6367;52.508;13.284;2023-02-22T13:00:34;12.60;97.60
12604;DHT22;6367;52.508;13.284;2023-02-22T13:16:52;12.70;97.80
12604;DHT22;6367;52.508;13.284;2023-02-22T13:19:43;12.70;97.70
12604;DHT22;6367;52.508;13.284;2023-02-22T13:22:51;12.70;97.50
12604;DHT22;6367;52.508;13.284;2023-02-22T13:25:34;12.60;97.80
12604;DHT22;6367;52.508;13.284;2023-02-22T13:46:21;12.60;97.60
12604;DHT22;6367;52.508;13.284;2023-02-22T13:57:40;12.80;97.60
12604;DHT22;6367;52.508;13.284;2023-02-22T14:16:33;12.70;97.60
12604;DHT22;6367;52.508;13.284;2023-02-22T14:28:06;12.70;97.50
12604;DHT22;6367;52.508;13.284;2023-02-22T14:34:20;12.90;97.20
12604;DHT22;6367;52.508;13.284;2023-02-22T14:40:25;12.30;97.00
12604;DHT22;6367;52.508;13.284;2023-02-22T14:42:57;12.60;97.40
12604;DHT22;6367;52.508;13.284;2023-02-22T14:45:28;12.70;97.30
12604;DHT22;6367;52.508;13.284;2023-02-22T14:48:23;12.60;97.30
12604;DHT22;6367;52.508;13.284;2023-02-22T14:50:59;12.60;97.60
12604;DHT22;6367;52.508;13.284;2023-02-22T14:53:51;12.50;97.60
12604;DHT22;6367;52.508;13.284;2023-02-22T15:01:37;12.50;97.60
12604;DHT22;6367;52.508;13.284;2023-02-22T15:04:24;12.50;97.70
12604;DHT22;6367;52.508;13.284;2023-02-22T15:06:50;12.70;97.70
12604;DHT22;6367;52.508;13.284;2023-02-22T15:09:21;12.60;97.50
12604;DHT22;6367;52.508;13.284;2023-02-22T15:12:08;12.60;97.50
12604;DHT22;6367;52.508;13.284;2023-02-22T15:14:38;12.60;97.60
12604;DHT22;6367;52.508;13.284;2023-02-22T15:17:20;12.60;97.40
12604;DHT22;6367;52.508;13.284;2023-02-22T15:19:47;12.40;97.50
12604;DHT22;6367;52.508;13.284;2023-02-22T15:22:22;12.60;97.60
12604;DHT22;6367;52.508;13.284;2023-02-22T15:25:01;12.50;97.60
12604;DHT22;6367;52.508;13.284;2023-02-22T15:27:28;12.50;97.50
12604;DHT22;6367;52.508;13.284;2023-02-22T15:30:02;12.60;97.40
12604;DHT22;6367;52.508;13.284;2023-02-22T15:35:24;12.60;97.70
12604;DHT22;6367;52.508;13.284;2023-02-22T15:38:02;12.50;97.70
12604;DHT22;6367;52.508;13.284;2023-02-22T15:40:29;12.40;97.70
12604;DHT22;6367;52.508;13.284;2023-02-22T15:43:05;12.50;97.70
12604;DHT22;6367;52.508;13.284;2023-02-22T15:45:33;12.40;97.90
12604;DHT22;6367;52.508;13.284;2023-02-22T15:48:00;12.50;97.90
12604;DHT22;6367;52.508;13.284;2023-02-22T15:50:33;12.40;97.90
12604;DHT22;6367;52.508;13.284;2023-02-22T15:55:39;12.30;97.80
12604;DHT22;6367;52.508;13.284;2023-02-22T16:01:04;12.40;98.10
12604;DHT22;6367;52.508;13.284;2023-02-22T16:03:35;12.30;98.30
12604;DHT22;6367;52.508;13.284;2023-02-22T16:06:10;12.20;98.40
12604;DHT22;6367;52.508;13.284;2023-02-22T16:08:51;12.10;98.50
12604;DHT22;6367;52.508;13.284;2023-02-22T16:14:21;12.20;98.50
12604;DHT22;6367;52.508;13.284;2023-02-22T16:16:42;12.20;98.90
12604;DHT22;6367;52.508;13.284;2023-02-22T16:19:27;12.20;98.50
12604;DHT22;6367;52.508;13.284;2023-02-22T16:21:58;12.20;98.70
12604;DHT22;6367;52.508;13.284;2023-02-22T16:24:36;12.20;98.60
12604;DHT22;6367;52.508;13.284;2023-02-22T16:27:06;12.10;98.70
12604;DHT22;6367;52.508;13.284;2023-02-22T16:29:40;12.10;98.90
12604;DHT22;6367;52.508;13.284;2023-02-22T16:32:06;12.10;98.90
12604;DHT22;6367;52.508;13.284;2023-02-22T16:34:32;12.10;99.00
12604;DHT22;6367;52.508;13.284;2023-02-22T16:36:58;12.20;98.80
12604;DHT22;6367;52.508;13.284;2023-02-22T16:39:30;12.10;99.20
12604;DHT22;6367;52.508;13.284;2023-02-22T16:42:03;12.00;99.00
12604;DHT22;6367;52.508;13.284;2023-02-22T16:44:29;12.00;98.60
12604;DHT22;6367;52.508;13.284;2023-02-22T16:46:58;12.00;98.60
12604;DHT22;6367;52.508;13.284;2023-02-22T16:49:24;12.00;98.60
12604;DHT22;6367;52.508;13.284;2023-02-22T16:51:53;12.00;98.50
12604;DHT22;6367;52.508;13.284;2023-02-22T16:56:55;12.10;98.50
12604;DHT22;6367;52.508;13.284;2023-02-22T16:59:22;12.10;98.60
12604;DHT22;6367;52.508;13.284;2023-02-22T17:01:48;12.00;98.50
12604;DHT22;6367;52.508;13.284;2023-02-22T17:04:21;12.00;98.50
12604;DHT22;6367;52.508;13.284;2023-02-22T17:06:48;12.00;98.50
12604;DHT22;6367;52.508;13.284;2023-02-22T17:09:14;12.00;98.40
12604;DHT22;6367;52.508;13.284;2023-02-22T17:11:41;11.90;98.50
12604;DHT22;6367;52.508;13.284;2023-02-22T17:14:07;11.80;98.50
12604;DHT22;6367;52.508;13.284;2023-02-22T17:16:34;11.80;98.70
12604;DHT22;6367;52.508;13.284;2023-02-22T17:19:00;12.00;98.80
12604;DHT22;6367;52.508;13.284;2023-02-22T17:21:30;11.90;98.60
12604;DHT22;6367;52.508;13.284;2023-02-22T17:23:55;11.90;98.60
12604;DHT22;6367;52.508;13.284;2023-02-22T17:26:21;11.90;98.60
12604;DHT22;6367;52.508;13.284;2023-02-22T17:28:47;12.00;98.30
12604;DHT22;6367;52.508;13.284;2023-02-22T17:31:21;11.90;98.50
12604;DHT22;6367;52.508;13.284;2023-02-22T17:33:48;11.90;98.40
12604;DHT22;6367;52.508;13.284;2023-02-22T17:36:15;11.90;98.50
12604;DHT22;6367;52.508;13.284;2023-02-22T17:38:41;11.80;98.90
12604;DHT22;6367;52.508;13.284;2023-02-22T17:41:08;11.70;98.50
12604;DHT22;6367;52.508;13.284;2023-02-22T17:43:33;11.70;98.70
12604;DHT22;6367;52.508;13.284;2023-02-22T17:46:03;11.70;98.70
12604;DHT22;6367;52.508;13.284;2023-02-22T17:48:32;11.70;98.80
12604;DHT22;6367;52.508;13.284;2023-02-22T17:50:58;11.80;98.70
12604;DHT22;6367;52.508;13.284;2023-02-22T17:53:23;11.80;98.50
12604;DHT22;6367;52.508;13.284;2023-02-22T17:55:50;11.80;98.60
12604;DHT22;6367;52.508;13.284;2023-02-22T17:58:17;11.70;98.60
12604;DHT22;6367;52.508;13.284;2023-02-22T18:00:48;11.70;98.80
12604;DHT22;6367;52.508;13.284;2023-02-22T18:03:17;11.70;98.60
12604;DHT22;6367;52.508;13.284;2023-02-22T18:05:48;11.60;98.70
12604;DHT22;6367;52.508;13.284;2023-02-22T18:08:18;11.60;98.70
12604;DHT22;6367;52.508;13.284;2023-02-22T18:10:44;11.60;98.70
12604;DHT22;6367;52.508;13.284;2023-02-22T18:13:17;12.00;98.70
12604;DHT22;6367;52.508;13.284;2023-02-22T18:15:44;11.60;98.60
12604;DHT22;6367;52.508;13.284;2023-02-22T18:18:11;11.80;98.90
12604;DHT22;6367;52.508;13.284;2023-02-22T18:20:43;11.40;98.60
12604;DHT22;6367;52.508;13.284;2023-02-22T18:23:14;11.50;98.60
12604;DHT22;6367;52.508;13.284;2023-02-22T18:25:45;11.50;98.60
12604;DHT22;6367;52.508;13.284;2023-02-22T18:28:13;11.50;98.50
12604;DHT22;6367;52.508;13.284;2023-02-22T18:30:39;11.50;98.60
12604;DHT22;6367;52.508;13.284;2023-02-22T18:33:06;11.50;98.50
12604;DHT22;6367;52.508;13.284;2023-02-22T18:35:37;11.50;98.40
12604;DHT22;6367;52.508;13.284;2023-02-22T18:38:03;11.40;98.20
12604;DHT22;6367;52.508;13.284;2023-02-22T18:40:29;11.40;98.30
12604;DHT22;6367;52.508;13.284;2023-02-22T18:42:55;11.30;98.30
12604;DHT22;6367;52.508;13.284;2023-02-22T18:45:21;11.30;98.40
12604;DHT22;6367;52.508;13.284;2023-02-22T18:47:50;11.30;98.40
12604;DHT22;6367;52.508;13.284;2023-02-22T18:50:16;11.40;98.30
12604;DHT22;6367;52.508;13.284;2023-02-22T18:52:45;11.40;98.50
12604;DHT22;6367;52.508;13.284;2023-02-22T18:55:17;11.40;98.30